createdAt,value
2022-12-10T00:01:17.281Z,3.87
2022-12-10T00:03:44.198Z,3.90
2022-12-10T00:06:17.066Z,3.92
2022-12-10T00:08:43.691Z,3.94
2022-12-10T00:11:12.527Z,3.96
2022-12-10T00:13:39.574Z,3.99
2022-12-10T00:16:09.676Z,4.06
2022-12-10T00:18:37.274Z,4.06
2022-12-10T00:21:05.647Z,4.05
2022-12-10T00:23:33.298Z,4.01
2022-12-10T00:26:07.478Z,4.05
2022-12-10T00:28:34.126Z,4.04
2022-12-10T00:31:12.424Z,4.05
2022-12-10T00:33:39.520Z,4.06
2022-12-10T00:36:09.719Z,4.03
2022-12-10T00:38:36.665Z,4.04
2022-12-10T00:41:03.855Z,4.06
2022-12-10T00:43:30.961Z,4.01
2022-12-10T00:45:58.139Z,4.04
2022-12-10T00:48:24.894Z,4.06
2022-12-10T00:50:58.659Z,4.06
2022-12-10T00:53:26.591Z,4.10
2022-12-10T00:55:53.446Z,4.10
2022-12-10T00:58:20.478Z,4.11
2022-12-10T01:00:47.314Z,4.11
2022-12-10T01:03:14.048Z,4.15
2022-12-10T01:05:40.758Z,4.13
2022-12-10T01:08:07.625Z,4.11
2022-12-10T01:10:34.540Z,4.12
2022-12-10T01:13:01.015Z,4.13
2022-12-10T01:15:27.873Z,4.14
2022-12-10T01:17:54.309Z,4.16
2022-12-10T01:20:20.975Z,4.19
2022-12-10T01:22:47.759Z,4.22
2022-12-10T01:25:14.240Z,4.23
2022-12-10T01:27:40.791Z,4.21
2022-12-10T01:30:08.740Z,4.23
2022-12-10T01:32:35.397Z,4.22
2022-12-10T01:35:01.859Z,4.25
2022-12-10T01:37:28.299Z,4.24
2022-12-10T01:39:54.784Z,4.25
2022-12-10T01:42:21.433Z,4.20
2022-12-10T01:44:47.821Z,4.12
2022-12-10T01:47:14.331Z,4.07
2022-12-10T01:49:42.064Z,4.14
2022-12-10T01:52:12.028Z,4.11
2022-12-10T01:54:44.840Z,4.12
2022-12-10T01:57:19.401Z,4.15
2022-12-10T01:59:49.692Z,4.16
2022-12-10T02:02:43.684Z,4.15
2022-12-10T02:05:33.489Z,4.12
2022-12-10T02:08:02.935Z,4.07
2022-12-10T02:10:54.180Z,4.09
2022-12-10T02:13:41.254Z,4.10
2022-12-10T02:16:17.153Z,4.09
2022-12-10T02:19:22.341Z,4.04
2022-12-10T02:21:51.811Z,4.07
2022-12-10T02:24:24.775Z,4.07
2022-12-10T02:27:02.126Z,4.05
2022-12-10T02:29:31.060Z,3.92
2022-12-10T02:32:03.280Z,3.93
2022-12-10T02:34:34.533Z,3.94
2022-12-10T02:37:05.781Z,3.92
2022-12-10T02:39:39.620Z,4.06
2022-12-10T02:42:09.550Z,4.05
2022-12-10T02:44:38.851Z,4.04
2022-12-10T02:47:06.767Z,4.03
2022-12-10T02:49:33.709Z,4.02
2022-12-10T02:52:07.774Z,4.06
2022-12-10T02:54:38.636Z,4.06
2022-12-10T02:57:33.949Z,4.09
2022-12-10T03:00:19.705Z,4.16
2022-12-10T03:03:37.650Z,4.16
2022-12-10T03:06:32.500Z,4.10
2022-12-10T03:09:13.989Z,4.03
2022-12-10T03:11:42.553Z,3.98
2022-12-10T03:14:23.570Z,3.95
2022-12-10T03:16:57.112Z,3.94
2022-12-10T03:19:31.776Z,4.03
2022-12-10T03:22:00.481Z,4.04
2022-12-10T03:24:28.438Z,4.02
2022-12-10T03:26:56.003Z,4.01
2022-12-10T03:29:32.438Z,4.06
2022-12-10T03:32:00.790Z,4.07
2022-12-10T03:34:27.582Z,4.06
2022-12-10T03:36:55.089Z,4.10
2022-12-10T03:39:21.874Z,4.14
2022-12-10T03:41:48.514Z,4.21
2022-12-10T03:44:28.269Z,4.22
2022-12-10T03:46:54.778Z,4.16
2022-12-10T03:49:21.220Z,4.11
2022-12-10T03:51:47.660Z,4.05
2022-12-10T03:54:14.460Z,4.04
2022-12-10T03:56:40.977Z,4.09
2022-12-10T03:59:08.025Z,4.12
2022-12-10T04:01:34.487Z,4.13
2022-12-10T04:04:01.083Z,4.16
2022-12-10T04:06:27.716Z,4.21
2022-12-10T04:08:58.797Z,4.26
2022-12-10T04:11:26.588Z,4.29
2022-12-10T04:14:12.135Z,4.31
2022-12-10T04:16:39.347Z,4.28
2022-12-10T04:19:11.804Z,4.32
2022-12-10T04:21:59.335Z,4.31
2022-12-10T04:24:46.910Z,4.27
2022-12-10T04:27:36.370Z,4.25
2022-12-10T04:30:03.821Z,4.28
2022-12-10T04:32:30.753Z,4.28
2022-12-10T04:34:57.963Z,4.31
2022-12-10T04:37:25.137Z,4.31
2022-12-10T04:39:52.069Z,4.27
2022-12-10T04:42:20.141Z,4.25
2022-12-10T04:44:46.651Z,4.22
2022-12-10T04:47:13.678Z,4.22
2022-12-10T04:49:41.099Z,4.16
2022-12-10T04:52:09.045Z,4.12
2022-12-10T04:54:38.965Z,4.09
2022-12-10T04:57:06.011Z,3.94
2022-12-10T04:59:32.564Z,3.89
2022-12-10T05:01:59.161Z,3.92
2022-12-10T05:04:25.664Z,4.00
2022-12-10T05:06:52.183Z,4.00
2022-12-10T05:09:18.934Z,4.07
2022-12-10T05:11:45.518Z,4.09
2022-12-10T05:14:13.435Z,4.07
2022-12-10T05:16:40.301Z,4.04
2022-12-10T05:19:06.864Z,3.98
2022-12-10T05:21:52.139Z,3.86
2022-12-10T05:24:20.060Z,3.81
2022-12-10T05:26:46.718Z,3.87
2022-12-10T05:29:14.029Z,3.91
2022-12-10T05:31:40.581Z,3.97
2022-12-10T05:34:09.258Z,3.97
2022-12-10T05:36:35.964Z,3.98
2022-12-10T05:39:02.601Z,3.97
2022-12-10T05:41:32.603Z,3.97
2022-12-10T05:43:59.691Z,3.88
2022-12-10T05:46:28.757Z,3.88
2022-12-10T05:48:55.522Z,3.90
2022-12-10T05:51:24.841Z,3.86
2022-12-10T05:53:52.725Z,3.95
2022-12-10T05:56:22.352Z,3.87
2022-12-10T05:58:51.464Z,3.83
2022-12-10T06:01:23.321Z,3.83
2022-12-10T06:03:51.186Z,3.84
2022-12-10T06:06:25.200Z,3.81
2022-12-10T06:08:52.373Z,3.82
2022-12-10T06:11:18.952Z,3.82
2022-12-10T06:13:45.529Z,3.81
2022-12-10T06:16:16.928Z,3.82
2022-12-10T06:18:44.094Z,3.82
2022-12-10T06:21:13.403Z,3.78
2022-12-10T06:23:40.942Z,3.82
2022-12-10T06:26:17.150Z,3.82
2022-12-10T06:28:46.041Z,3.82
2022-12-10T06:31:13.714Z,3.82
2022-12-10T06:33:40.216Z,3.76
2022-12-10T06:36:09.186Z,3.81
2022-12-10T06:38:36.306Z,3.79
2022-12-10T06:41:06.363Z,3.86
2022-12-10T06:43:32.830Z,3.91
2022-12-10T06:45:59.359Z,3.97
2022-12-10T06:48:25.904Z,3.98
2022-12-10T06:50:52.382Z,3.98
2022-12-10T06:53:19.565Z,3.98
2022-12-10T06:55:46.034Z,3.91
2022-12-10T06:58:12.537Z,3.85
2022-12-10T07:00:39.150Z,3.78
2022-12-10T07:03:05.723Z,3.81
2022-12-10T07:05:32.325Z,3.84
2022-12-10T07:07:58.782Z,3.94
2022-12-10T07:10:25.509Z,3.93
2022-12-10T07:12:52.117Z,4.02
2022-12-10T07:15:18.678Z,4.05
2022-12-10T07:17:45.161Z,4.03
2022-12-10T07:20:12.992Z,4.01
2022-12-10T07:22:40.123Z,4.04
2022-12-10T07:25:07.292Z,4.04
2022-12-10T07:27:33.818Z,3.99
2022-12-10T07:30:00.280Z,3.91
2022-12-10T07:32:28.531Z,3.91
2022-12-10T07:34:54.972Z,4.02
2022-12-10T07:37:21.566Z,3.95
2022-12-10T07:39:48.158Z,3.94
2022-12-10T07:42:14.760Z,3.99
2022-12-10T07:44:43.915Z,3.98
2022-12-10T07:47:14.199Z,4.02
2022-12-10T07:49:40.836Z,4.03
2022-12-10T07:52:07.678Z,3.99
2022-12-10T07:54:34.151Z,4.05
2022-12-10T07:57:00.926Z,4.06
2022-12-10T07:59:27.422Z,4.05
2022-12-10T08:01:53.888Z,4.05
2022-12-10T08:04:20.452Z,4.04
2022-12-10T08:06:46.937Z,4.11
2022-12-10T08:09:13.577Z,4.12
2022-12-10T08:11:40.086Z,4.19
2022-12-10T08:14:06.630Z,4.25
2022-12-10T08:16:33.461Z,4.31
2022-12-10T08:19:01.671Z,4.26
2022-12-10T08:21:31.451Z,4.24
2022-12-10T08:23:58.619Z,4.24
2022-12-10T08:26:28.496Z,4.33
2022-12-10T08:28:56.229Z,4.37
2022-12-10T08:31:25.248Z,4.28
2022-12-10T08:33:52.206Z,4.34
2022-12-10T08:36:19.846Z,4.42
2022-12-10T08:38:46.789Z,4.44
2022-12-10T08:41:21.317Z,4.35
2022-12-10T08:43:48.786Z,4.38
2022-12-10T08:46:16.259Z,4.41
2022-12-10T08:48:43.599Z,4.39
2022-12-10T08:51:14.199Z,4.58
2022-12-10T08:53:40.663Z,4.69
2022-12-10T08:56:08.640Z,4.80
2022-12-10T08:58:35.151Z,4.82
2022-12-10T09:01:06.814Z,4.88
2022-12-10T09:03:33.458Z,4.89
2022-12-10T09:06:06.650Z,4.88
2022-12-10T09:08:33.630Z,4.80
2022-12-10T09:11:06.080Z,4.86
2022-12-10T09:13:32.543Z,4.88
2022-12-10T09:15:59.100Z,4.88
2022-12-10T09:18:25.587Z,4.89
2022-12-10T09:20:52.110Z,4.90
2022-12-10T09:23:18.609Z,4.86
2022-12-10T09:25:45.037Z,4.75
2022-12-10T09:28:11.518Z,4.84
2022-12-10T09:30:38.030Z,4.88
2022-12-10T09:33:04.625Z,5.01
2022-12-10T09:35:31.601Z,5.07
2022-12-10T09:37:58.079Z,5.12
2022-12-10T09:40:40.046Z,5.19
2022-12-10T09:43:27.496Z,5.22
2022-12-10T09:46:18.079Z,5.21
2022-12-10T09:49:06.128Z,5.33
2022-12-10T09:51:38.425Z,5.31
2022-12-10T09:54:26.364Z,5.34
2022-12-10T09:56:55.032Z,5.45
2022-12-10T09:59:33.837Z,5.58
2022-12-10T10:02:27.325Z,5.66
2022-12-10T10:05:08.145Z,5.79
2022-12-10T10:07:39.377Z,5.95
2022-12-10T10:10:41.243Z,6.05
2022-12-10T10:13:19.842Z,6.07
2022-12-10T10:15:46.895Z,6.14
2022-12-10T10:18:37.927Z,6.01
2022-12-10T10:21:08.507Z,6.08
2022-12-10T10:23:35.799Z,6.11
2022-12-10T10:26:02.336Z,6.21
2022-12-10T10:28:29.083Z,6.31
2022-12-10T10:30:55.610Z,6.38
2022-12-10T10:33:22.378Z,6.34
2022-12-10T10:35:59.127Z,6.37
2022-12-10T10:38:30.893Z,6.53
2022-12-10T10:40:59.730Z,6.46
2022-12-10T10:43:32.121Z,6.48
2022-12-10T10:46:07.472Z,6.37
2022-12-10T10:48:34.108Z,6.41
2022-12-10T10:51:08.508Z,6.49
2022-12-10T10:53:55.833Z,6.49
2022-12-10T10:56:22.754Z,6.55
2022-12-10T10:58:53.399Z,6.44
2022-12-10T11:01:20.581Z,6.43
2022-12-10T11:03:54.635Z,6.29
2022-12-10T11:06:47.043Z,6.18
2022-12-10T11:09:26.723Z,6.16
2022-12-10T11:12:00.792Z,6.17
2022-12-10T11:14:39.580Z,6.20
2022-12-10T11:17:13.716Z,6.23
2022-12-10T11:19:44.042Z,6.28
2022-12-10T11:22:21.227Z,6.22
2022-12-10T11:24:49.513Z,6.27
2022-12-10T11:27:30.937Z,6.27
2022-12-10T11:30:10.513Z,6.33
2022-12-10T11:33:07.802Z,6.27
2022-12-10T11:36:04.709Z,6.37
2022-12-10T11:38:56.888Z,6.35
2022-12-10T11:41:41.232Z,6.38
2022-12-10T11:44:22.103Z,6.50
2022-12-10T11:47:04.881Z,6.48
2022-12-10T11:49:41.189Z,6.54
2022-12-10T11:52:22.612Z,6.63
2022-12-10T11:55:15.766Z,6.67
2022-12-10T11:58:05.811Z,6.61
2022-12-10T12:00:46.803Z,6.55
2022-12-10T12:03:27.039Z,6.59
2022-12-10T12:06:08.763Z,6.64
2022-12-10T12:09:02.531Z,6.48
2022-12-10T12:11:52.016Z,6.48
2022-12-10T12:14:31.575Z,6.31
2022-12-10T12:17:04.120Z,6.20
2022-12-10T12:19:45.777Z,6.20
2022-12-10T12:22:27.524Z,6.14
2022-12-10T12:25:06.678Z,6.10
2022-12-10T12:27:49.169Z,6.03
2022-12-10T12:30:22.736Z,6.00
2022-12-10T12:33:11.057Z,5.96
2022-12-10T12:35:46.087Z,5.85
2022-12-10T12:38:12.528Z,5.82
2022-12-10T12:40:49.181Z,5.75
2022-12-10T12:43:21.929Z,5.74
2022-12-10T12:45:52.753Z,5.50
2022-12-10T12:48:43.028Z,5.50
2022-12-10T12:51:20.230Z,5.39
2022-12-10T12:53:46.781Z,5.59
2022-12-10T12:56:36.227Z,5.69
2022-12-10T12:59:37.247Z,5.89
2022-12-10T13:02:13.439Z,5.95
2022-12-10T13:04:40.270Z,5.75
2022-12-10T13:07:16.833Z,5.97
2022-12-10T13:09:47.737Z,5.72
2022-12-10T13:12:46.585Z,5.58
2022-12-10T13:15:38.373Z,5.41
2022-12-10T13:18:21.580Z,5.48
2022-12-10T13:21:12.957Z,5.68
2022-12-10T13:24:25.181Z,5.83
2022-12-10T13:27:10.144Z,5.91
2022-12-10T13:30:38.977Z,5.88
2022-12-10T13:33:22.184Z,5.75
2022-12-10T13:36:02.746Z,5.58
2022-12-10T13:38:41.249Z,5.62
2022-12-10T13:41:26.837Z,5.66
2022-12-10T13:44:18.060Z,5.59
2022-12-10T13:47:00.567Z,5.60
2022-12-10T13:49:30.907Z,5.48
2022-12-10T13:52:08.297Z,5.37
2022-12-10T13:54:41.750Z,5.14
2022-12-10T13:57:29.236Z,5.10
2022-12-10T14:00:19.346Z,5.03
2022-12-10T14:03:16.494Z,4.99
2022-12-10T14:05:56.640Z,4.74
2022-12-10T14:08:29.213Z,4.89
2022-12-10T14:10:58.650Z,4.95
2022-12-10T14:13:41.939Z,4.92
2022-12-10T14:16:13.113Z,4.69
2022-12-10T14:18:43.573Z,4.82
2022-12-10T14:21:15.457Z,4.60
2022-12-10T14:23:51.848Z,4.58
2022-12-10T14:26:36.189Z,4.67
2022-12-10T14:29:29.831Z,4.64
2022-12-10T14:31:57.250Z,4.66
2022-12-10T14:34:29.785Z,4.61
2022-12-10T14:37:01.589Z,4.51
2022-12-10T14:39:31.124Z,4.39
2022-12-10T14:42:04.698Z,4.53
2022-12-10T14:44:32.427Z,4.56
2022-12-10T14:47:25.485Z,4.39
2022-12-10T14:49:55.189Z,4.33
2022-12-10T14:52:25.400Z,4.33
2022-12-10T14:54:52.820Z,4.28
2022-12-10T14:57:25.854Z,4.20
2022-12-10T15:00:09.054Z,4.22
2022-12-10T15:02:39.443Z,4.12
2022-12-10T15:05:17.197Z,4.07
2022-12-10T15:07:53.123Z,4.02
2022-12-10T15:10:27.599Z,4.01
2022-12-10T15:12:55.237Z,4.01
2022-12-10T15:15:36.270Z,4.00
2022-12-10T15:18:09.075Z,3.95
2022-12-10T15:20:50.790Z,3.95
2022-12-10T15:23:35.504Z,3.89
2022-12-10T15:26:05.279Z,3.87
2022-12-10T15:29:14.785Z,3.84
2022-12-10T15:31:44.970Z,3.77
2022-12-10T15:34:14.795Z,3.80
2022-12-10T15:36:51.654Z,3.70
2022-12-10T15:39:31.171Z,3.72
2022-12-10T15:41:59.718Z,3.72
2022-12-10T15:44:33.290Z,3.64
2022-12-10T15:47:09.646Z,3.67
2022-12-10T15:49:36.292Z,3.58
2022-12-10T15:52:03.745Z,3.54
2022-12-10T15:54:34.123Z,3.56
2022-12-10T15:57:01.209Z,3.54
2022-12-10T15:59:27.752Z,3.54
2022-12-10T16:01:55.300Z,3.42
2022-12-10T16:04:23.045Z,3.47
2022-12-10T16:06:49.560Z,3.42
2022-12-10T16:09:16.063Z,3.40
2022-12-10T16:11:43.991Z,3.41
2022-12-10T16:14:14.272Z,3.42
2022-12-10T16:16:42.353Z,3.26
2022-12-10T16:19:13.064Z,3.18
2022-12-10T16:21:42.312Z,3.13
2022-12-10T16:24:08.805Z,3.20
2022-12-10T16:26:35.465Z,3.29
2022-12-10T16:29:08.297Z,3.27
2022-12-10T16:31:34.975Z,3.32
2022-12-10T16:34:01.550Z,3.12
2022-12-10T16:36:28.035Z,3.18
2022-12-10T16:38:54.842Z,3.34
2022-12-10T16:41:27.727Z,3.08
2022-12-10T16:43:58.361Z,3.23
2022-12-10T16:46:33.790Z,3.27
2022-12-10T16:49:00.337Z,3.35
2022-12-10T16:51:31.332Z,3.29
2022-12-10T16:53:59.028Z,3.28
2022-12-10T17:26:21.868Z,2.96
2022-12-10T17:28:51.344Z,2.74
2022-12-10T17:31:26.733Z,2.84
2022-12-10T17:33:53.480Z,2.84
2022-12-10T17:36:20.366Z,2.82
2022-12-10T17:38:46.917Z,2.72
2022-12-10T17:41:17.754Z,2.89
2022-12-10T17:43:44.341Z,2.85
2022-12-10T17:46:15.075Z,2.89
2022-12-10T17:48:41.906Z,2.90
2022-12-10T17:51:11.678Z,2.85
2022-12-10T17:53:38.248Z,2.86
2022-12-10T17:56:11.937Z,2.87
2022-12-10T17:58:40.453Z,2.88
2022-12-10T18:01:06.959Z,2.90
2022-12-10T18:03:33.596Z,2.90
2022-12-10T18:06:00.223Z,2.89
2022-12-10T18:08:27.483Z,2.87
2022-12-10T18:10:54.498Z,2.84
2022-12-10T18:13:22.279Z,2.79
2022-12-10T18:15:49.192Z,2.75
2022-12-10T18:18:15.681Z,2.70
2022-12-10T19:41:58.701Z,3.13
2022-12-10T19:44:25.151Z,3.19
2022-12-10T19:46:52.044Z,3.14
2022-12-10T19:49:19.595Z,3.10
2022-12-10T19:53:55.504Z,2.66
2022-12-10T19:56:32.157Z,2.72
2022-12-10T20:03:36.883Z,1.60
2022-12-10T20:06:03.461Z,1.93
2022-12-10T20:08:32.226Z,2.29
2022-12-10T20:10:58.754Z,2.56
2022-12-10T20:13:25.300Z,2.72
2022-12-10T20:20:06.228Z,2.75
2022-12-10T20:22:32.735Z,2.76
2022-12-10T20:24:59.220Z,2.84
2022-12-10T20:27:25.658Z,2.90
2022-12-10T20:33:45.798Z,2.98
2022-12-10T20:36:20.414Z,2.95
2022-12-10T20:38:47.205Z,2.96
2022-12-10T20:41:15.749Z,2.98
2022-12-10T20:44:14.803Z,2.93
2022-12-10T20:46:41.635Z,2.85
2022-12-10T20:50:09.506Z,2.91
2022-12-10T20:52:50.109Z,2.96
2022-12-10T20:55:16.812Z,3.04
2022-12-10T20:58:41.679Z,2.84
2022-12-10T21:01:11.970Z,2.78
2022-12-10T21:03:42.454Z,2.74
2022-12-10T21:06:15.092Z,2.54
2022-12-10T21:09:03.219Z,2.56
2022-12-10T21:11:30.040Z,2.54
2022-12-10T21:13:56.507Z,2.52
2022-12-10T21:17:13.831Z,2.42
2022-12-10T21:19:48.382Z,2.41
2022-12-10T21:22:22.110Z,2.45
2022-12-10T21:24:54.048Z,2.26
2022-12-10T21:27:20.631Z,2.06
2022-12-10T21:29:47.049Z,2.00
2022-12-10T21:32:14.980Z,1.98
2022-12-10T21:34:42.620Z,2.13
2022-12-10T21:37:27.138Z,2.17
2022-12-10T21:39:53.578Z,2.30
2022-12-10T21:42:38.635Z,2.18
2022-12-10T21:45:05.535Z,2.23
2022-12-10T21:47:31.983Z,2.20
2022-12-10T21:50:01.847Z,2.23
2022-12-10T21:52:28.376Z,2.03
2022-12-10T21:54:54.849Z,1.71
2022-12-10T21:57:21.376Z,1.73
2022-12-10T21:59:47.818Z,1.88
2022-12-10T22:02:14.293Z,1.75
2022-12-10T22:04:40.836Z,1.95
2022-12-10T22:07:07.291Z,2.07
2022-12-10T22:09:33.826Z,2.14
2022-12-10T22:12:00.511Z,2.22
2022-12-10T22:14:27.001Z,2.29
2022-12-10T22:16:53.489Z,2.32
2022-12-10T22:19:20.155Z,2.28
2022-12-10T22:21:46.669Z,2.19
2022-12-10T22:24:13.185Z,2.08
2022-12-10T22:26:39.932Z,2.02
2022-12-10T22:29:06.388Z,2.00
2022-12-10T22:31:32.927Z,2.01
2022-12-10T22:33:59.925Z,2.07
2022-12-10T22:36:28.592Z,2.13
2022-12-10T22:38:55.254Z,2.17
2022-12-10T22:41:21.682Z,2.15
2022-12-10T22:43:51.228Z,2.14
2022-12-10T22:46:18.706Z,2.08
2022-12-10T22:48:45.362Z,2.03
2022-12-10T22:51:11.989Z,2.02
2022-12-10T22:53:38.476Z,1.90
2022-12-10T22:56:07.159Z,1.86
2022-12-10T22:58:34.148Z,1.84
2022-12-10T23:01:00.756Z,1.87
2022-12-10T23:03:29.020Z,1.81
2022-12-10T23:05:56.130Z,1.76
2022-12-10T23:08:28.420Z,1.65
2022-12-10T23:10:55.186Z,1.65
2022-12-10T23:13:21.905Z,1.55
2022-12-10T23:15:50.888Z,1.49
2022-12-10T23:18:17.993Z,1.47
2022-12-10T23:20:49.573Z,1.37
2022-12-10T23:23:20.274Z,1.21
2022-12-10T23:25:47.160Z,1.10
2022-12-10T23:28:14.702Z,1.08
2022-12-10T23:30:41.722Z,0.99
2022-12-10T23:33:09.330Z,1.02
2022-12-10T23:35:41.288Z,0.99
2022-12-10T23:38:07.798Z,0.98
2022-12-10T23:40:34.249Z,0.94
2022-12-10T23:43:00.748Z,0.85
2022-12-10T23:45:27.317Z,0.76
2022-12-10T23:47:53.958Z,0.69
2022-12-10T23:50:20.391Z,0.60
2022-12-10T23:52:46.897Z,0.50
2022-12-10T23:55:13.470Z,0.39
2022-12-10T23:57:39.931Z,0.29
